sensor_id;sensor_type;location;lat;lon;timestamp;pressure;altitude;pressure_sealevel;temperature;humidity
75936;BME280;64614;32.062;34.834;2023-07-28T00:02:22;100216.44;;;28.89;53.94
75936;BME280;64614;32.062;34.834;2023-07-28T00:04:47;100222.78;;;28.89;54.41
75936;BME280;64614;32.062;34.834;2023-07-28T00:07:13;100218.84;;;28.90;54.11
75936;BME280;64614;32.062;34.834;2023-07-28T00:09:39;100220.41;;;28.91;54.24
75936;BME280;64614;32.062;34.834;2023-07-28T00:12:05;100214.09;;;28.91;54.24
75936;BME280;64614;32.062;34.834;2023-07-28T00:14:30;100212.94;;;28.92;54.29
75936;BME280;64614;32.062;34.834;2023-07-28T00:16:57;100213.72;;;28.92;54.10
75936;BME280;64614;32.062;34.834;2023-07-28T00:19:23;100218.91;;;28.94;54.56
75936;BME280;64614;32.062;34.834;2023-07-28T00:21:50;100225.59;;;28.93;54.10
75936;BME280;64614;32.062;34.834;2023-07-28T00:24:17;100220.50;;;28.95;54.10
75936;BME280;64614;32.062;34.834;2023-07-28T00:26:43;100226.03;;;28.95;54.34
75936;BME280;64614;32.062;34.834;2023-07-28T00:29:09;100235.56;;;28.98;54.39
75936;BME280;64614;32.062;34.834;2023-07-28T00:31:35;100229.22;;;28.97;54.23
75936;BME280;64614;32.062;34.834;2023-07-28T00:34:02;100229.22;;;28.97;54.32
75936;BME280;64614;32.062;34.834;2023-07-28T00:36:28;100217.00;;;28.98;54.28
75936;BME280;64614;32.062;34.834;2023-07-28T00:38:54;100234.75;;;28.97;54.32
75936;BME280;64614;32.062;34.834;2023-07-28T00:41:19;100230.03;;;28.98;54.39
75936;BME280;64614;32.062;34.834;2023-07-28T00:43:45;100222.53;;;28.98;54.37
75936;BME280;64614;32.062;34.834;2023-07-28T00:46:10;100232.41;;;28.99;54.34
75936;BME280;64614;32.062;34.834;2023-07-28T00:48:36;100236.78;;;29.00;54.64
75936;BME280;64614;32.062;34.834;2023-07-28T00:51:03;100230.81;;;28.98;54.39
75936;BME280;64614;32.062;34.834;2023-07-28T00:53:29;100237.56;;;29.01;54.28
75936;BME280;64614;32.062;34.834;2023-07-28T00:55:55;100232.41;;;28.99;54.28
75936;BME280;64614;32.062;34.834;2023-07-28T00:58:22;100234.81;;;29.01;54.73
75936;BME280;64614;32.062;34.834;2023-07-28T01:00:48;100236.78;;;29.00;54.28
75936;BME280;64614;32.062;34.834;2023-07-28T01:03:15;100231.69;;;29.02;54.38
75936;BME280;64614;32.062;34.834;2023-07-28T01:08:19;100232.53;;;29.06;54.03
75936;BME280;64614;32.062;34.834;2023-07-28T01:10:49;100231.31;;;29.04;54.46
75936;BME280;64614;32.062;34.834;2023-07-28T01:13:15;100234.09;;;29.04;54.27
75936;BME280;64614;32.062;34.834;2023-07-28T01:15:40;100232.13;;;29.04;54.45
75936;BME280;64614;32.062;34.834;2023-07-28T01:18:06;100231.31;;;29.04;54.34
75936;BME280;64614;32.062;34.834;2023-07-28T01:20:33;100234.91;;;29.04;54.42
75936;BME280;64614;32.062;34.834;2023-07-28T01:25:32;100238.13;;;29.10;54.15
75936;BME280;64614;32.062;34.834;2023-07-28T01:28:02;100234.16;;;29.07;54.37
75936;BME280;64614;32.062;34.834;2023-07-28T01:30:29;100234.16;;;29.07;54.34
75936;BME280;64614;32.062;34.834;2023-07-28T01:32:56;100250.75;;;29.07;54.43
75936;BME280;64614;32.062;34.834;2023-07-28T01:35:22;100250.75;;;29.07;54.69
75936;BME280;64614;32.062;34.834;2023-07-28T01:37:48;100247.97;;;29.07;54.45
75936;BME280;64614;32.062;34.834;2023-07-28T01:40:17;100249.94;;;29.07;54.55
75936;BME280;64614;32.062;34.834;2023-07-28T01:42:43;100259.84;;;29.08;54.52
75936;BME280;64614;32.062;34.834;2023-07-28T01:45:09;100265.00;;;29.10;54.34
75936;BME280;64614;32.062;34.834;2023-07-28T01:47:34;100264.56;;;29.07;54.50
75936;BME280;64614;32.062;34.834;2023-07-28T01:50:00;100265.00;;;29.10;54.41
75936;BME280;64614;32.062;34.834;2023-07-28T01:52:26;100261.44;;;29.09;54.63
75936;BME280;64614;32.062;34.834;2023-07-28T01:54:51;100265.00;;;29.10;54.49
75936;BME280;64614;32.062;34.834;2023-07-28T01:57:17;100262.22;;;29.10;54.56
75936;BME280;64614;32.062;34.834;2023-07-28T01:59:43;100263.84;;;29.11;54.50
75936;BME280;64614;32.062;34.834;2023-07-28T02:02:09;100262.22;;;29.10;54.65
75936;BME280;64614;32.062;34.834;2023-07-28T02:04:35;100272.50;;;29.09;54.50
75936;BME280;64614;32.062;34.834;2023-07-28T02:07:00;100278.81;;;29.10;54.52
75936;BME280;64614;32.062;34.834;2023-07-28T02:09:26;100278.03;;;29.09;54.50
75936;BME280;64614;32.062;34.834;2023-07-28T02:11:52;100282.38;;;29.10;54.70
75936;BME280;64614;32.062;34.834;2023-07-28T02:14:18;100287.13;;;29.10;54.65
75936;BME280;64614;32.062;34.834;2023-07-28T02:16:44;100287.91;;;29.10;54.49
75936;BME280;64614;32.062;34.834;2023-07-28T02:19:09;100287.91;;;29.10;54.73
75936;BME280;64614;32.062;34.834;2023-07-28T02:21:35;100287.13;;;29.10;54.51
75936;BME280;64614;32.062;34.834;2023-07-28T02:24:01;100290.66;;;29.10;54.70
75936;BME280;64614;32.062;34.834;2023-07-28T02:26:27;100295.41;;;29.10;54.49
75936;BME280;64614;32.062;34.834;2023-07-28T02:28:52;100297.03;;;29.11;54.41
75936;BME280;64614;32.062;34.834;2023-07-28T02:31:18;100299.78;;;29.11;54.39
75936;BME280;64614;32.062;34.834;2023-07-28T02:33:44;100297.03;;;29.11;54.36
75936;BME280;64614;32.062;34.834;2023-07-28T02:36:10;100297.41;;;29.09;54.60
75936;BME280;64614;32.062;34.834;2023-07-28T02:38:36;100300.94;;;29.10;54.50
75936;BME280;64614;32.062;34.834;2023-07-28T02:41:02;100302.91;;;29.09;54.50
75936;BME280;64614;32.062;34.834;2023-07-28T02:43:29;100303.72;;;29.10;54.64
75936;BME280;64614;32.062;34.834;2023-07-28T02:45:58;100305.69;;;29.09;54.86
75936;BME280;64614;32.062;34.834;2023-07-28T02:48:24;100310.03;;;29.10;54.42
75936;BME280;64614;32.062;34.834;2023-07-28T02:50:50;100306.47;;;29.10;54.56
75936;BME280;64614;32.062;34.834;2023-07-28T02:53:16;100311.22;;;29.09;54.81
75936;BME280;64614;32.062;34.834;2023-07-28T02:55:43;100307.63;;;29.08;54.54
75936;BME280;64614;32.062;34.834;2023-07-28T02:58:09;100314.78;;;29.10;54.71
75936;BME280;64614;32.062;34.834;2023-07-28T03:00:42;100313.16;;;29.08;54.49
75936;BME280;64614;32.062;34.834;2023-07-28T03:03:09;100315.94;;;29.08;54.53
75936;BME280;64614;32.062;34.834;2023-07-28T03:05:38;100313.16;;;29.08;54.54
75936;BME280;64614;32.062;34.834;2023-07-28T03:08:04;100310.41;;;29.08;54.28
75936;BME280;64614;32.062;34.834;2023-07-28T03:10:30;100322.63;;;29.07;54.75
75936;BME280;64614;32.062;34.834;2023-07-28T03:12:56;100324.59;;;29.07;54.46
75936;BME280;64614;32.062;34.834;2023-07-28T03:15:22;100322.28;;;29.09;54.63
75936;BME280;64614;32.062;34.834;2023-07-28T03:17:48;100315.50;;;29.06;54.66
75936;BME280;64614;32.062;34.834;2023-07-28T03:20:14;100325.38;;;29.07;54.91
75936;BME280;64614;32.062;34.834;2023-07-28T03:22:40;100326.53;;;29.06;54.87
75936;BME280;64614;32.062;34.834;2023-07-28T03:25:06;100328.16;;;29.07;54.61
75936;BME280;64614;32.062;34.834;2023-07-28T03:27:32;100326.53;;;29.06;54.55
75936;BME280;64614;32.062;34.834;2023-07-28T03:29:58;100334.84;;;29.06;54.51
75936;BME280;64614;32.062;34.834;2023-07-28T03:32:23;100338.41;;;29.07;54.64
75936;BME280;64614;32.062;34.834;2023-07-28T03:34:49;100342.34;;;29.06;54.58
75936;BME280;64614;32.062;34.834;2023-07-28T03:37:15;100342.34;;;29.06;54.58
75936;BME280;64614;32.062;34.834;2023-07-28T03:39:40;100351.44;;;29.06;54.60
75936;BME280;64614;32.062;34.834;2023-07-28T03:42:06;100347.06;;;29.05;54.90
75936;BME280;64614;32.062;34.834;2023-07-28T03:44:32;100351.81;;;29.05;54.61
75936;BME280;64614;32.062;34.834;2023-07-28T03:46:59;100358.13;;;29.05;54.48
75936;BME280;64614;32.062;34.834;2023-07-28T03:49:24;100343.50;;;29.05;54.64
75936;BME280;64614;32.062;34.834;2023-07-28T03:51:50;100360.88;;;29.05;54.66
75936;BME280;64614;32.062;34.834;2023-07-28T03:54:16;100358.13;;;29.05;54.63
75936;BME280;64614;32.062;34.834;2023-07-28T03:56:41;100356.53;;;29.04;54.82
75936;BME280;64614;32.062;34.834;2023-07-28T03:59:07;100360.88;;;29.05;54.97
75936;BME280;64614;32.062;34.834;2023-07-28T04:01:33;100362.88;;;29.05;54.74
75936;BME280;64614;32.062;34.834;2023-07-28T04:03:58;100373.13;;;29.04;54.69
75936;BME280;64614;32.062;34.834;2023-07-28T04:06:42;100366.78;;;29.04;54.77
75936;BME280;64614;32.062;34.834;2023-07-28T04:09:08;100375.09;;;29.04;54.40
75936;BME280;64614;32.062;34.834;2023-07-28T04:11:34;100360.47;;;29.03;54.60
75936;BME280;64614;32.062;34.834;2023-07-28T04:14:00;100361.69;;;29.06;54.73
75936;BME280;64614;32.062;34.834;2023-07-28T04:16:26;100373.13;;;29.04;54.88
75936;BME280;64614;32.062;34.834;2023-07-28T04:18:51;100364.03;;;29.04;54.69
75936;BME280;64614;32.062;34.834;2023-07-28T04:21:17;100366.00;;;29.03;54.57
75936;BME280;64614;32.062;34.834;2023-07-28T04:23:43;100372.31;;;29.04;54.71
75936;BME280;64614;32.062;34.834;2023-07-28T04:26:09;100380.63;;;29.04;54.92
75936;BME280;64614;32.062;34.834;2023-07-28T04:28:34;100377.84;;;29.04;54.81
75936;BME280;64614;32.062;34.834;2023-07-28T04:31:00;100377.06;;;29.03;54.67
75936;BME280;64614;32.062;34.834;2023-07-28T04:33:26;100384.19;;;29.04;54.91
75936;BME280;64614;32.062;34.834;2023-07-28T04:35:51;100382.59;;;29.03;54.72
75936;BME280;64614;32.062;34.834;2023-07-28T04:38:17;100382.22;;;29.05;54.60
75936;BME280;64614;32.062;34.834;2023-07-28T04:40:44;100382.22;;;29.05;54.74
75936;BME280;64614;32.062;34.834;2023-07-28T04:43:10;100379.44;;;29.05;54.50
75936;BME280;64614;32.062;34.834;2023-07-28T04:45:36;100378.66;;;29.04;54.55
75936;BME280;64614;32.062;34.834;2023-07-28T04:48:02;100381.84;;;29.06;54.69
75936;BME280;64614;32.062;34.834;2023-07-28T04:50:28;100390.13;;;29.06;54.72
75936;BME280;64614;32.062;34.834;2023-07-28T04:52:54;100387.38;;;29.06;54.63
75936;BME280;64614;32.062;34.834;2023-07-28T04:55:20;100383.44;;;29.07;54.80
75936;BME280;64614;32.062;34.834;2023-07-28T04:57:46;100386.22;;;29.07;54.82
75936;BME280;64614;32.062;34.834;2023-07-28T05:00:12;100384.59;;;29.06;54.79
75936;BME280;64614;32.062;34.834;2023-07-28T05:02:38;100381.06;;;29.06;54.67
75936;BME280;64614;32.062;34.834;2023-07-28T05:05:04;100383.44;;;29.07;54.78
75936;BME280;64614;32.062;34.834;2023-07-28T05:07:30;100388.97;;;29.07;55.00
75936;BME280;64614;32.062;34.834;2023-07-28T05:09:55;100388.97;;;29.07;54.75
75936;BME280;64614;32.062;34.834;2023-07-28T05:12:21;100389.78;;;29.08;54.51
75936;BME280;64614;32.062;34.834;2023-07-28T05:14:47;100389.41;;;29.10;54.67
75936;BME280;64614;32.062;34.834;2023-07-28T05:17:12;100386.66;;;29.10;54.79
75936;BME280;64614;32.062;34.834;2023-07-28T05:19:38;100389.41;;;29.10;54.70
75936;BME280;64614;32.062;34.834;2023-07-28T05:22:04;100387.38;;;29.06;55.10
75936;BME280;64614;32.062;34.834;2023-07-28T05:24:32;100389.78;;;29.08;54.66
75936;BME280;64614;32.062;34.834;2023-07-28T05:26:58;100386.66;;;29.10;54.70
75936;BME280;64614;32.062;34.834;2023-07-28T05:29:24;100382.28;;;29.08;55.05
75936;BME280;64614;32.062;34.834;2023-07-28T05:31:49;100391.03;;;29.11;55.08
75936;BME280;64614;32.062;34.834;2023-07-28T05:34:15;100389.41;;;29.10;54.72
75936;BME280;64614;32.062;34.834;2023-07-28T05:36:41;100385.13;;;29.12;54.57
75936;BME280;64614;32.062;34.834;2023-07-28T05:39:07;100380.75;;;29.11;54.88
75936;BME280;64614;32.062;34.834;2023-07-28T05:41:32;100385.13;;;29.12;54.84
75936;BME280;64614;32.062;34.834;2023-07-28T05:43:58;100385.94;;;29.13;54.64
75936;BME280;64614;32.062;34.834;2023-07-28T05:46:24;100386.34;;;29.15;55.03
75936;BME280;64614;32.062;34.834;2023-07-28T05:48:49;100387.09;;;29.12;54.87
75936;BME280;64614;32.062;34.834;2023-07-28T05:51:15;100395.47;;;29.15;54.85
75936;BME280;64614;32.062;34.834;2023-07-28T05:53:41;100397.06;;;29.16;54.76
75936;BME280;64614;32.062;34.834;2023-07-28T05:56:06;100385.19;;;29.16;54.53
75936;BME280;64614;32.062;34.834;2023-07-28T05:58:33;100387.97;;;29.16;54.90
75936;BME280;64614;32.062;34.834;2023-07-28T06:00:58;100392.69;;;29.15;54.47
75936;BME280;64614;32.062;34.834;2023-07-28T06:03:24;100386.78;;;29.17;55.02
75936;BME280;64614;32.062;34.834;2023-07-28T06:05:50;100393.94;;;29.18;54.89
75936;BME280;64614;32.062;34.834;2023-07-28T06:08:16;100390.00;;;29.19;54.90
75936;BME280;64614;32.062;34.834;2023-07-28T06:10:43;100394.38;;;29.20;54.91
75936;BME280;64614;32.062;34.834;2023-07-28T06:13:08;100386.88;;;29.20;54.78
75936;BME280;64614;32.062;34.834;2023-07-28T06:15:35;100394.81;;;29.22;54.79
75936;BME280;64614;32.062;34.834;2023-07-28T06:18:04;100389.28;;;29.22;54.78
75936;BME280;64614;32.062;34.834;2023-07-28T06:20:30;100388.47;;;29.21;55.15
75936;BME280;64614;32.062;34.834;2023-07-28T06:22:56;100392.06;;;29.22;55.22
75936;BME280;64614;32.062;34.834;2023-07-28T06:25:23;100385.34;;;29.23;54.94
75936;BME280;64614;32.062;34.834;2023-07-28T06:27:48;100385.34;;;29.23;54.94
75936;BME280;64614;32.062;34.834;2023-07-28T06:30:14;100383.00;;;29.25;55.04
75936;BME280;64614;32.062;34.834;2023-07-28T06:32:40;100390.16;;;29.26;54.83
75936;BME280;64614;32.062;34.834;2023-07-28T06:35:06;100385.44;;;29.27;54.94
75936;BME280;64614;32.062;34.834;2023-07-28T06:37:34;100383.81;;;29.26;54.89
75936;BME280;64614;32.062;34.834;2023-07-28T06:40:00;100382.66;;;29.27;54.89
75936;BME280;64614;32.062;34.834;2023-07-28T06:42:25;100387.81;;;29.28;55.10
75936;BME280;64614;32.062;34.834;2023-07-28T06:44:51;100389.41;;;29.29;54.91
75936;BME280;64614;32.062;34.834;2023-07-28T06:47:18;100399.31;;;29.30;54.78
75936;BME280;64614;32.062;34.834;2023-07-28T06:49:44;100389.41;;;29.29;54.88
75936;BME280;64614;32.062;34.834;2023-07-28T06:52:10;100387.06;;;29.31;55.17
75936;BME280;64614;32.062;34.834;2023-07-28T06:54:36;100387.06;;;29.31;54.87
75936;BME280;64614;32.062;34.834;2023-07-28T06:57:02;100385.94;;;29.32;54.82
75936;BME280;64614;32.062;34.834;2023-07-28T06:59:27;100387.06;;;29.31;55.23
75936;BME280;64614;32.062;34.834;2023-07-28T07:01:53;100391.13;;;29.34;55.08
75936;BME280;64614;32.062;34.834;2023-07-28T07:04:19;100397.44;;;29.34;54.87
75936;BME280;64614;32.062;34.834;2023-07-28T07:06:45;100392.72;;;29.35;54.77
75936;BME280;64614;32.062;34.834;2023-07-28T07:09:11;100387.19;;;29.35;54.92
75936;BME280;64614;32.062;34.834;2023-07-28T07:11:40;100386.00;;;29.36;54.94
75936;BME280;64614;32.062;34.834;2023-07-28T07:14:06;100384.06;;;29.36;55.01
75936;BME280;64614;32.062;34.834;2023-07-28T07:16:32;100386.44;;;29.38;55.03
75936;BME280;64614;32.062;34.834;2023-07-28T07:18:58;100380.13;;;29.37;55.15
75936;BME280;64614;32.062;34.834;2023-07-28T07:21:24;100385.66;;;29.37;55.01
75936;BME280;64614;32.062;34.834;2023-07-28T07:23:50;100384.50;;;29.38;54.71
75936;BME280;64614;32.062;34.834;2023-07-28T07:26:16;100384.50;;;29.38;54.94
75936;BME280;64614;32.062;34.834;2023-07-28T07:28:42;100380.13;;;29.37;55.08
75936;BME280;64614;32.062;34.834;2023-07-28T07:31:15;100377.81;;;29.39;55.01
75936;BME280;64614;32.062;34.834;2023-07-28T07:33:41;100379.38;;;29.41;54.95
75936;BME280;64614;32.062;34.834;2023-07-28T07:36:17;100382.16;;;29.41;54.98
75936;BME280;64614;32.062;34.834;2023-07-28T07:38:43;100372.69;;;29.42;54.79
75936;BME280;64614;32.062;34.834;2023-07-28T07:41:13;100375.44;;;29.42;54.87
75936;BME280;64614;32.062;34.834;2023-07-28T07:43:45;100375.44;;;29.42;55.09
75936;BME280;64614;32.062;34.834;2023-07-28T07:46:10;100380.97;;;29.42;55.14
75936;BME280;64614;32.062;34.834;2023-07-28T07:48:36;100377.06;;;29.43;55.26
75936;BME280;64614;32.062;34.834;2023-07-28T07:51:02;100373.13;;;29.44;54.88
75936;BME280;64614;32.062;34.834;2023-07-28T07:53:27;100375.88;;;29.44;55.28
75936;BME280;64614;32.062;34.834;2023-07-28T07:55:53;100374.28;;;29.43;54.90
75936;BME280;64614;32.062;34.834;2023-07-28T07:58:19;100378.66;;;29.44;55.10
75936;BME280;64614;32.062;34.834;2023-07-28T08:00:45;100381.03;;;29.45;55.08
75936;BME280;64614;32.062;34.834;2023-07-28T08:03:11;100376.34;;;29.46;55.02
75936;BME280;64614;32.062;34.834;2023-07-28T08:05:36;100377.94;;;29.47;54.80
75936;BME280;64614;32.062;34.834;2023-07-28T08:08:03;100376.34;;;29.46;54.84
75936;BME280;64614;32.062;34.834;2023-07-28T08:10:30;100373.19;;;29.47;54.80
75936;BME280;64614;32.062;34.834;2023-07-28T08:12:56;100370.41;;;29.47;54.92
75936;BME280;64614;32.062;34.834;2023-07-28T08:15:22;100374.78;;;29.48;54.92
75936;BME280;64614;32.062;34.834;2023-07-28T08:17:48;100381.94;;;29.49;54.88
75936;BME280;64614;32.062;34.834;2023-07-28T08:20:14;100369.25;;;29.48;54.77
75936;BME280;64614;32.062;34.834;2023-07-28T08:22:40;100370.03;;;29.49;54.76
75936;BME280;64614;32.062;34.834;2023-07-28T08:25:06;100374.78;;;29.48;55.09
75936;BME280;64614;32.062;34.834;2023-07-28T08:27:32;100376.41;;;29.49;55.22
75936;BME280;64614;32.062;34.834;2023-07-28T08:29:57;100372.03;;;29.48;54.97
75936;BME280;64614;32.062;34.834;2023-07-28T08:32:23;100372.47;;;29.50;54.92
75936;BME280;64614;32.062;34.834;2023-07-28T08:34:49;100368.88;;;29.50;54.87
75936;BME280;64614;32.062;34.834;2023-07-28T08:37:14;100378.00;;;29.50;54.86
75936;BME280;64614;32.062;34.834;2023-07-28T08:39:40;100361.75;;;29.49;54.76
75936;BME280;64614;32.062;34.834;2023-07-28T08:42:06;100372.09;;;29.52;54.92
75936;BME280;64614;32.062;34.834;2023-07-28T08:44:33;100359.41;;;29.51;54.88
75936;BME280;64614;32.062;34.834;2023-07-28T08:47:04;100374.84;;;29.52;54.75
75936;BME280;64614;32.062;34.834;2023-07-28T08:49:33;100369.31;;;29.52;55.07
75936;BME280;64614;32.062;34.834;2023-07-28T08:52:01;100374.84;;;29.52;54.94
75936;BME280;64614;32.062;34.834;2023-07-28T08:54:27;100373.25;;;29.51;54.70
75936;BME280;64614;32.062;34.834;2023-07-28T08:56:53;100367.72;;;29.51;54.80
75936;BME280;64614;32.062;34.834;2023-07-28T08:59:22;100361.84;;;29.52;54.89
75936;BME280;64614;32.062;34.834;2023-07-28T09:01:54;100370.94;;;29.53;54.91
75936;BME280;64614;32.062;34.834;2023-07-28T09:04:24;100362.63;;;29.53;54.82
75936;BME280;64614;32.062;34.834;2023-07-28T09:06:50;100359.06;;;29.52;54.68
75936;BME280;64614;32.062;34.834;2023-07-28T09:11:48;100360.66;;;29.53;55.02
75936;BME280;64614;32.062;34.834;2023-07-28T09:14:16;100369.75;;;29.54;54.82
75936;BME280;64614;32.062;34.834;2023-07-28T09:16:48;100365.38;;;29.53;54.85
75936;BME280;64614;32.062;34.834;2023-07-28T09:19:14;100351.56;;;29.53;54.78
75936;BME280;64614;32.062;34.834;2023-07-28T09:21:42;100361.47;;;29.54;54.76
75936;BME280;64614;32.062;34.834;2023-07-28T09:24:12;100358.31;;;29.55;54.75
75936;BME280;64614;32.062;34.834;2023-07-28T09:29:18;100345.66;;;29.54;54.83
75936;BME280;64614;32.062;34.834;2023-07-28T09:31:46;100348.78;;;29.53;54.82
75936;BME280;64614;32.062;34.834;2023-07-28T09:34:13;100357.53;;;29.55;54.76
75936;BME280;64614;32.062;34.834;2023-07-28T09:36:49;100354.75;;;29.55;54.83
75936;BME280;64614;32.062;34.834;2023-07-28T09:39:14;100343.69;;;29.55;54.82
75936;BME280;64614;32.062;34.834;2023-07-28T09:41:42;100352.00;;;29.55;54.87
75936;BME280;64614;32.062;34.834;2023-07-28T09:44:10;100354.75;;;29.55;54.69
75936;BME280;64614;32.062;34.834;2023-07-28T09:46:54;100353.59;;;29.56;54.81
75936;BME280;64614;32.062;34.834;2023-07-28T09:49:33;100334.22;;;29.56;54.87
75936;BME280;64614;32.062;34.834;2023-07-28T09:52:04;100336.19;;;29.55;54.89
75936;BME280;64614;32.062;34.834;2023-07-28T09:54:34;100341.72;;;29.55;55.08
75936;BME280;64614;32.062;34.834;2023-07-28T09:57:04;100337.00;;;29.56;54.81
75936;BME280;64614;32.062;34.834;2023-07-28T09:59:40;100330.66;;;29.55;54.89
75936;BME280;64614;32.062;34.834;2023-07-28T10:02:07;100335.41;;;29.55;54.95
75936;BME280;64614;32.062;34.834;2023-07-28T10:04:33;100335.00;;;29.57;54.50
75936;BME280;64614;32.062;34.834;2023-07-28T10:06:59;100330.31;;;29.57;54.67
75936;BME280;64614;32.062;34.834;2023-07-28T10:09:27;100331.47;;;29.56;55.01
75936;BME280;64614;32.062;34.834;2023-07-28T10:11:54;100331.47;;;29.56;54.70
75936;BME280;64614;32.062;34.834;2023-07-28T10:14:34;100326.34;;;29.58;54.81
75936;BME280;64614;32.062;34.834;2023-07-28T10:17:04;100322.00;;;29.57;54.73
75936;BME280;64614;32.062;34.834;2023-07-28T10:19:36;100324.75;;;29.57;54.56
75936;BME280;64614;32.062;34.834;2023-07-28T10:22:06;100316.47;;;29.57;54.97
75936;BME280;64614;32.062;34.834;2023-07-28T10:24:55;100318.84;;;29.59;54.80
75936;BME280;64614;32.062;34.834;2023-07-28T10:27:35;100312.50;;;29.58;54.92
75936;BME280;64614;32.062;34.834;2023-07-28T10:30:09;100303.84;;;29.60;54.44
75936;BME280;64614;32.062;34.834;2023-07-28T10:32:38;100300.66;;;29.58;54.80
75936;BME280;64614;32.062;34.834;2023-07-28T10:37:45;100291.97;;;29.59;54.90
75936;BME280;64614;32.062;34.834;2023-07-28T10:40:36;100285.28;;;29.60;54.86
75936;BME280;64614;32.062;34.834;2023-07-28T10:43:04;100291.97;;;29.59;54.92
75936;BME280;64614;32.062;34.834;2023-07-28T10:45:31;100302.25;;;29.59;54.88
75936;BME280;64614;32.062;34.834;2023-07-28T10:47:58;100291.19;;;29.59;54.67
75936;BME280;64614;32.062;34.834;2023-07-28T10:50:31;100287.25;;;29.60;54.80
75936;BME280;64614;32.062;34.834;2023-07-28T10:52:57;100277.34;;;29.59;54.86
75936;BME280;64614;32.062;34.834;2023-07-28T10:55:25;100294.38;;;29.61;55.10
75936;BME280;64614;32.062;34.834;2023-07-28T10:57:53;100278.94;;;29.60;54.79
75936;BME280;64614;32.062;34.834;2023-07-28T11:00:20;100288.03;;;29.60;54.97
75936;BME280;64614;32.062;34.834;2023-07-28T11:02:55;100285.28;;;29.60;54.91
75936;BME280;64614;32.062;34.834;2023-07-28T11:07:51;100270.66;;;29.60;54.95
75936;BME280;64614;32.062;34.834;2023-07-28T11:10:18;100277.41;;;29.62;54.73
75936;BME280;64614;32.062;34.834;2023-07-28T11:12:45;100278.56;;;29.61;54.71
75936;BME280;64614;32.062;34.834;2023-07-28T11:15:13;100278.56;;;29.61;54.47
75936;BME280;64614;32.062;34.834;2023-07-28T11:17:40;100267.50;;;29.61;54.77
75936;BME280;64614;32.062;34.834;2023-07-28T11:20:27;100275.44;;;29.63;55.02
75936;BME280;64614;32.062;34.834;2023-07-28T11:25:24;100269.09;;;29.62;54.82
75936;BME280;64614;32.062;34.834;2023-07-28T11:27:50;100268.31;;;29.62;54.88
75936;BME280;64614;32.062;34.834;2023-07-28T11:30:17;100271.44;;;29.60;55.06
75936;BME280;64614;32.062;34.834;2023-07-28T11:32:45;100272.25;;;29.61;54.75
75936;BME280;64614;32.062;34.834;2023-07-28T11:35:12;100274.25;;;29.64;54.96
75936;BME280;64614;32.062;34.834;2023-07-28T11:37:40;100261.97;;;29.61;55.08
75936;BME280;64614;32.062;34.834;2023-07-28T11:40:07;100270.28;;;29.61;54.58
75936;BME280;64614;32.062;34.834;2023-07-28T11:42:40;100262.41;;;29.63;54.87
75936;BME280;64614;32.062;34.834;2023-07-28T11:45:07;100263.56;;;29.62;54.81
75936;BME280;64614;32.062;34.834;2023-07-28T11:47:33;100270.72;;;29.63;54.90
75936;BME280;64614;32.062;34.834;2023-07-28T11:49:59;100265.97;;;29.64;54.90
75936;BME280;64614;32.062;34.834;2023-07-28T11:52:32;100272.31;;;29.64;54.62
75936;BME280;64614;32.062;34.834;2023-07-28T11:55:02;100265.59;;;29.65;54.96
75936;BME280;64614;32.062;34.834;2023-07-28T11:57:30;100273.91;;;29.65;55.04
75936;BME280;64614;32.062;34.834;2023-07-28T12:00:04;100268.38;;;29.65;54.87
75936;BME280;64614;32.062;34.834;2023-07-28T12:02:31;100276.28;;;29.67;54.88
75936;BME280;64614;32.062;34.834;2023-07-28T12:04:59;100258.88;;;29.66;54.75
75936;BME280;64614;32.062;34.834;2023-07-28T12:07:29;100254.16;;;29.67;54.62
75936;BME280;64614;32.062;34.834;2023-07-28T12:10:03;100254.16;;;29.67;54.50
75936;BME280;64614;32.062;34.834;2023-07-28T12:12:38;100254.94;;;29.67;54.69
75936;BME280;64614;32.062;34.834;2023-07-28T12:18:11;100260.91;;;29.69;54.71
75936;BME280;64614;32.062;34.834;2023-07-28T12:20:53;100261.28;;;29.68;54.92
75936;BME280;64614;32.062;34.834;2023-07-28T12:23:21;100245.47;;;29.68;54.63
75936;BME280;64614;32.062;34.834;2023-07-28T12:25:48;100241.94;;;29.68;54.44
75936;BME280;64614;32.062;34.834;2023-07-28T12:28:14;100241.09;;;29.67;54.73
75936;BME280;64614;32.062;34.834;2023-07-28T12:30:40;100243.88;;;29.67;54.92
75936;BME280;64614;32.062;34.834;2023-07-28T12:33:06;100243.88;;;29.67;54.73
75936;BME280;64614;32.062;34.834;2023-07-28T12:35:33;100244.69;;;29.68;54.91
75936;BME280;64614;32.062;34.834;2023-07-28T12:38:01;100250.66;;;29.70;54.64
75936;BME280;64614;32.062;34.834;2023-07-28T12:40:27;100241.53;;;29.69;54.89
75936;BME280;64614;32.062;34.834;2023-07-28T12:42:56;100234.84;;;29.70;54.85
75936;BME280;64614;32.062;34.834;2023-07-28T12:45:22;100250.28;;;29.72;54.84
75936;BME280;64614;32.062;34.834;2023-07-28T12:47:54;100237.59;;;29.70;54.55
75936;BME280;64614;32.062;34.834;2023-07-28T12:50:21;100238.41;;;29.71;54.92
75936;BME280;64614;32.062;34.834;2023-07-28T12:52:47;100253.03;;;29.72;55.13
75936;BME280;64614;32.062;34.834;2023-07-28T12:55:13;100240.38;;;29.70;54.90
75936;BME280;64614;32.062;34.834;2023-07-28T12:57:40;100254.66;;;29.73;54.75
75936;BME280;64614;32.062;34.834;2023-07-28T13:00:06;100247.50;;;29.72;54.86
75936;BME280;64614;32.062;34.834;2023-07-28T13:02:39;100253.84;;;29.72;54.59